Ventura — ZCDT2 — position and weather

sailwx.info

Track history (hours):
 
Tides and Currents Weather Stations Pressure Air Temp Water Temp Dewpoint Dewpoint Depression Visibility Wind Speed Wind Dir Waves Ship Positions

Ventura

Last reported at 2017-Sep-26 03:31 UTC. Time now 2017-Sep-26 03:59 UTC.
Position N 38°14' W 009°35'.

Length 289 m; draft 8.6 m.

Type: Passenger vessel. MMSI: 310562000.

Date/timePositionNaut miles runAvg speedWind from/ knotsBaromVisibWave heightAir tempDewpointWater temp
2017-Sep-26 03:31N 38°14' W 009°35'816.8
2017-Sep-26 03:01N 38°06' W 009°38'917.5
2017-Sep-26 02:31N 37°57' W 009°42'917.1
2017-Sep-26 02:01N 37°49' W 009°45'917.0
2017-Sep-26 01:31N 37°41' W 009°48'816.8
2017-Sep-26 01:01N 37°33' W 009°52'816.9
2017-Sep-26 00:31N 37°25' W 009°55'917.0
2017-Sep-26 00:00N 37°17' W 009°58'917.4
2017-Sep-25 23:30N 37°09' W 010°02'917.4
2017-Sep-25 23:01N 37°01' W 010°05'7401.9
2017-Sep-25 23:00N 36°54' W 010°06'3 5.6 350 / 201022.110.8 20.015.820.9
2017-Sep-25 22:31N 36°52' W 010°09'917.9
2017-Sep-25 22:01N 36°44' W 010°12'917.7
2017-Sep-25 21:30N 36°35' W 010°16'917.7
2017-Sep-25 20:59N 36°26' W 010°19'917.4
2017-Sep-25 20:28N 36°18' W 010°23'817.4
2017-Sep-25 20:00N 36°10' W 010°26'917.1
2017-Sep-25 19:30N 36°02' W 010°29'917.4
2017-Sep-25 19:01N 35°54' W 010°33'917.4
2017-Sep-25 18:31N 35°46' W 010°36'1019.1
2017-Sep-25 18:00N 35°36' W 010°36'3150.9 010 / 211021.527.0 20.112.322.0
2017-Sep-25 17:58N 35°37' W 010°40'817.6
2017-Sep-25 17:30N 35°29' W 010°43'917.7
2017-Sep-25 17:01N 35°21' W 010°46'917.8
2017-Sep-25 16:29N 35°12' W 010°50'917.8
2017-Sep-25 15:59N 35°04' W 010°53'8117.4
2017-Sep-25 11:22N 33°47' W 011°24'616.1
2017-Sep-25 11:01N 33°42' W 011°26'816.1
2017-Sep-25 10:31N 33°34' W 011°29'815.9
2017-Sep-25 10:01N 33°26' W 011°32'2916.0
2017-Sep-25 08:13N 32°59' W 011°43'6416.1
2017-Sep-25 04:13N 31°58' W 012°07'416.9
2017-Sep-25 03:57N 31°54' W 012°08'817.3
2017-Sep-25 03:30N 31°46' W 012°11'917.4
2017-Sep-25 03:00N 31°38' W 012°14'917.1
2017-Sep-25 02:30N 31°30' W 012°17'917.2
2017-Sep-25 02:00N 31°22' W 012°21'816.8
2017-Sep-25 01:30N 31°14' W 012°24'917.2
2017-Sep-25 01:00N 31°06' W 012°27'816.8
2017-Sep-25 00:30N 30°58' W 012°30'816.4
2017-Sep-25 00:00N 30°50' W 012°33'816.8
2017-Sep-24 23:30N 30°42' W 012°36'816.6
2017-Sep-24 23:01N 30°34' W 012°39'816.3
2017-Sep-24 22:31N 30°26' W 012°42'816.0
2017-Sep-24 22:01N 30°19' W 012°45'815.8
2017-Sep-24 21:31N 30°11' W 012°48'816.1
2017-Sep-24 21:01N 30°04' W 012°51'816.1
2017-Sep-24 20:30N 29°56' W 012°54'816.3
2017-Sep-24 20:01N 29°48' W 012°57'816.3
2017-Sep-24 19:30N 29°41' W 012°60'816.4
2017-Sep-24 19:00N 29°33' W 013°03'816.4
2017-Sep-24 18:31N 29°25' W 013°05'916.5
2017-Sep-24 17:57N 29°16' W 013°09'716.9
2017-Sep-24 17:31N 29°09' W 013°11'816.0
2017-Sep-24 17:00N 29°03' W 013°18'816.1
2017-Sep-24 16:30N 28°59' W 013°26'611.3
2017-Sep-24 16:01N 28°58' W 013°32'0 0.8
2017-Sep-24 15:30N 28°58' W 013°32'0 0.0
2017-Sep-24 15:00N 28°58' W 013°32'0 0.0
2017-Sep-24 14:30N 28°58' W 013°32'0 0.0
2017-Sep-24 14:00N 28°58' W 013°32'0 0.0
2017-Sep-24 13:30N 28°58' W 013°32'0 0.0
2017-Sep-24 13:00N 28°58' W 013°32'0 0.0
2017-Sep-24 12:30N 28°58' W 013°32'0 0.0
2017-Sep-24 12:00N 28°58' W 013°32'0 0.0
2017-Sep-24 11:24N 28°58' W 013°32'0 0.0
2017-Sep-24 10:54N 28°58' W 013°32'0 0.0
2017-Sep-24 10:30N 28°58' W 013°32'0 0.0
2017-Sep-24 09:12N 28°58' W 013°32'0 0.0
2017-Sep-24 08:57N 28°58' W 013°32'0 0.0
2017-Sep-24 08:27N 28°58' W 013°32'0 0.0
2017-Sep-24 08:00N 28°58' W 013°32'0 0.0
2017-Sep-24 07:30N 28°58' W 013°32'0 0.0
2017-Sep-24 07:00N 28°58' W 013°32'0 0.0
2017-Sep-24 06:30N 28°58' W 013°32'0 0.0
2017-Sep-24 06:00N 28°58' W 013°32'0 0.0
2017-Sep-24 05:30N 28°58' W 013°32'0 0.0
2017-Sep-24 04:45N 28°58' W 013°32'0 0.0
2017-Sep-24 04:30N 28°58' W 013°32'0 0.0
2017-Sep-24 04:00N 28°58' W 013°32'0 0.0
2017-Sep-24 03:30N 28°58' W 013°32'0 0.3
2017-Sep-24 03:00N 28°58' W 013°32'4 7.1
2017-Sep-24 02:30N 28°55' W 013°34'1218.5
2017-Sep-24 01:52N 28°48' W 013°45'918.1
2017-Sep-24 01:24N 28°48' W 013°55'718.3
2017-Sep-24 01:00N 28°48' W 014°03'918.1
2017-Sep-24 00:30N 28°44' W 014°12'1018.6
2017-Sep-24 00:00N 28°38' W 014°21'1116.8
2017-Sep-23 23:22N 28°32' W 014°31'3 9.5
2017-Sep-23 23:00N 28°30' W 014°34'10815.2
2017-Sep-23 23:00N 28°24' W 014°42'5 9.9 040 / 171016.610.8 22.019.722.6
2017-Sep-23 22:30N 28°27' W 014°38'5 9.8
2017-Sep-23 22:00N 28°25' W 014°43'5 9.5
2017-Sep-23 21:30N 28°22' W 014°47'5 9.5
2017-Sep-23 21:00N 28°18' W 014°50'5 9.9
2017-Sep-23 20:30N 28°13' W 014°52'5 9.7
2017-Sep-23 20:00N 28°09' W 014°54'180 4.0
2017-Sep-21 23:00N 30°48' W 016°30'7915.9 060 / 241020.510.8 22.518.623.0
2017-Sep-21 18:00N 32°06' W 016°48'129 6.8 020 / 221020.310.8 27.015.623.4
2017-Sep-20 23:00N 34°00' W 015°36'7815.6 010 / 181021.510.8 20.019.222.3
2017-Sep-20 18:00N 35°12' W 015°00'7415.1 340 / 171020.227.0 20.519.622.2
2017-Sep-20 13:06N 36°21' W 014°26'415.2
2017-Sep-20 12:49N 36°25' W 014°24'1814.8
2017-Sep-20 11:38N 36°41' W 014°15'1115.0
2017-Sep-20 10:53N 36°51' W 014°10'615.1
2017-Sep-20 10:30N 36°56' W 014°07'714.8
2017-Sep-20 10:00N 37°03' W 014°04'815.2
2017-Sep-20 09:27N 37°11' W 013°59'715.1
2017-Sep-20 09:00N 37°17' W 013°56'1114.8
2017-Sep-20 08:18N 37°27' W 013°51'415.5
2017-Sep-20 08:00N 37°31' W 013°49'815.6
2017-Sep-20 07:29N 37°38' W 013°45'715.5
2017-Sep-20 07:00N 37°45' W 013°41'5317.0
2017-Sep-20 07:00N 37°42' W 013°36'1121.0 060 / 61022.227.0 20.211.621.8
2017-Sep-20 06:29N 37°53' W 013°37'715.3
2017-Sep-20 06:00N 37°60' W 013°33'715.2
2017-Sep-20 05:30N 38°06' W 013°30'815.3
2017-Sep-20 05:00N 38°13' W 013°26'915.1
2017-Sep-20 04:25N 38°22' W 013°21'715.9
2017-Sep-20 04:00N 38°28' W 013°18'815.5
2017-Sep-20 03:30N 38°35' W 013°14'815.7
2017-Sep-20 03:00N 38°42' W 013°10'816.0
2017-Sep-20 02:30N 38°49' W 013°06'916.0
2017-Sep-20 01:58N 38°57' W 013°02'1115.9
2017-Sep-20 01:17N 39°07' W 012°57'415.6
2017-Sep-20 00:59N 39°12' W 012°54'11216.1
2017-Sep-19 18:00N 40°54' W 011°54'17015.4 330 / 91024.227.0 20.011.320.5
2017-Sep-19 07:00N 43°30' W 010°24'13815.3 180 / 41024.527.0 15.614.719.3
2017-Sep-18 22:00N 45°24' W 008°36'21616.5 1025.410.8 16.512.018.4
2017-Sep-18 08:54N 48°21' W 005°35'718.2
2017-Sep-18 08:30N 48°27' W 005°29'1019.2
2017-Sep-18 08:00N 48°35' W 005°19'918.5
2017-Sep-18 07:30N 48°41' W 005°10'917.4
2017-Sep-18 07:00N 48°47' W 005°00'4283.3
2017-Sep-18 07:00N 48°48' W 004°54'510.9 330 / 151019.827.0 11.1 9.714.3
2017-Sep-18 06:30N 48°53' W 004°50'816.5
2017-Sep-18 06:00N 48°58' W 004°41'5314.5
2017-Sep-18 02:22N 49°33' W 003°40'514.5
2017-Sep-18 02:00N 49°36' W 003°34'715.0
2017-Sep-18 01:30N 49°41' W 003°25'815.5
2017-Sep-18 01:01N 49°46' W 003°16'816.2
2017-Sep-18 00:30N 49°52' W 003°07'816.7
2017-Sep-18 00:00N 49°57' W 002°57'917.3
2017-Sep-17 23:30N 49°60' W 002°44'1732.4
2017-Sep-17 23:00N 50°00' W 002°18'87623.7 350 / 161017.4 5.4 14.5 8.616.9
2017-Sep-17 22:59N 50°02' W 002°31'1717.1
2017-Sep-17 21:58N 50°10' W 002°06'816.2
2017-Sep-17 21:30N 50°13' W 001°56'815.6
2017-Sep-17 21:00N 50°17' W 001°45'714.9
2017-Sep-17 20:31N 50°21' W 001°35'714.2
2017-Sep-17 19:59N 50°25' W 001°25'613.5
2017-Sep-17 19:30N 50°28' W 001°16'612.7
2017-Sep-17 19:01N 50°31' W 001°07'612.3
2017-Sep-17 18:31N 50°35' W 000°60'612.7
2017-Sep-17 18:01N 50°41' W 000°58'713.2
2017-Sep-17 17:31N 50°45' W 001°06'816.6
2017-Sep-17 17:01N 50°47' W 001°19'4 7.7
2017-Sep-17 16:30N 50°51' W 001°20'3 6.4
2017-Sep-17 15:59N 50°53' W 001°24'0 0.0
2017-Sep-17 15:29N 50°53' W 001°24'0 0.0
2017-Sep-17 14:59N 50°53' W 001°24'0 0.0
2017-Sep-17 14:29N 50°53' W 001°24'0 0.0
2017-Sep-17 13:56N 50°53' W 001°24'0 0.0
2017-Sep-17 13:29N 50°53' W 001°24'0 0.0
2017-Sep-17 12:59N 50°53' W 001°24'0 0.0
2017-Sep-17 12:29N 50°53' W 001°24'0 0.0
2017-Sep-17 11:59N 50°53' W 001°24'0 0.0
2017-Sep-17 11:29N 50°53' W 001°24'0 0.0
2017-Sep-17 10:59N 50°53' W 001°24'0 0.0
2017-Sep-17 10:29N 50°53' W 001°24'0 0.0
2017-Sep-17 09:59N 50°53' W 001°24'0 0.0
2017-Sep-17 09:29N 50°53' W 001°24'0 0.0
2017-Sep-17 08:59N 50°53' W 001°24'0 0.0
2017-Sep-17 08:29N 50°53' W 001°24'0 0.0
2017-Sep-17 07:59N 50°53' W 001°24'0 0.0
2017-Sep-17 07:23N 50°53' W 001°24'0 0.0
2017-Sep-17 06:56N 50°53' W 001°24'0 0.0
2017-Sep-17 06:30N 50°53' W 001°24'0 0.0
2017-Sep-17 05:59N 50°53' W 001°24'0 0.0
2017-Sep-17 05:26N 50°53' W 001°24'0 0.0
2017-Sep-17 04:59N 50°53' W 001°24'0 0.6
2017-Sep-17 04:30N 50°53' W 001°24'5 9.2
2017-Sep-17 04:01N 50°50' W 001°19'4 8.0
2017-Sep-17 03:30N 50°46' W 001°16'816.7
2017-Sep-17 03:00N 50°44' W 001°03'611.0
2017-Sep-17 02:30N 50°39' W 000°59'611.2
2017-Sep-17 02:01N 50°34' W 001°01'815.2
2017-Sep-17 01:31N 50°30' W 001°11'713.8
2017-Sep-17 01:00N 50°27' W 001°21'712.0
2017-Sep-17 00:26N 50°25' W 001°31'511.5
2017-Sep-16 23:58N 50°22' W 001°39'  
Track history (hours):
 
Tides and Currents Weather Stations Pressure Air Temp Water Temp Dewpoint Dewpoint Depression Visibility Wind Speed Wind Dir Waves Ship Positions

Ventura

Last reported at 2017-Sep-26 03:31 UTC. Time now 2017-Sep-26 03:59 UTC.
Position N 38°14' W 009°35'.

Length 289 m; draft 8.6 m.

Type: Passenger vessel. MMSI: 310562000.

Date/timePositionNaut miles runAvg speedWind from/ knotsBaromVisibWave heightAir tempDewpointWater temp
2017-Sep-26 03:31N 38°14' W 009°35'816.8
2017-Sep-26 03:01N 38°06' W 009°38'917.5
2017-Sep-26 02:31N 37°57' W 009°42'917.1
2017-Sep-26 02:01N 37°49' W 009°45'917.0
2017-Sep-26 01:31N 37°41' W 009°48'816.8
2017-Sep-26 01:01N 37°33' W 009°52'816.9
2017-Sep-26 00:31N 37°25' W 009°55'917.0
2017-Sep-26 00:00N 37°17' W 009°58'917.4
2017-Sep-25 23:30N 37°09' W 010°02'917.4
2017-Sep-25 23:01N 37°01' W 010°05'7401.9
2017-Sep-25 23:00N 36°54' W 010°06'3 5.6 350 / 201022.110.8 20.015.820.9
2017-Sep-25 22:31N 36°52' W 010°09'917.9
2017-Sep-25 22:01N 36°44' W 010°12'917.7
2017-Sep-25 21:30N 36°35' W 010°16'917.7
2017-Sep-25 20:59N 36°26' W 010°19'917.4
2017-Sep-25 20:28N 36°18' W 010°23'817.4
2017-Sep-25 20:00N 36°10' W 010°26'917.1
2017-Sep-25 19:30N 36°02' W 010°29'917.4
2017-Sep-25 19:01N 35°54' W 010°33'917.4
2017-Sep-25 18:31N 35°46' W 010°36'1019.1
2017-Sep-25 18:00N 35°36' W 010°36'3150.9 010 / 211021.527.0 20.112.322.0
2017-Sep-25 17:58N 35°37' W 010°40'817.6
2017-Sep-25 17:30N 35°29' W 010°43'917.7
2017-Sep-25 17:01N 35°21' W 010°46'917.8
2017-Sep-25 16:29N 35°12' W 010°50'917.8
2017-Sep-25 15:59N 35°04' W 010°53'8117.4
2017-Sep-25 11:22N 33°47' W 011°24'616.1
2017-Sep-25 11:01N 33°42' W 011°26'816.1
2017-Sep-25 10:31N 33°34' W 011°29'815.9
2017-Sep-25 10:01N 33°26' W 011°32'2916.0
2017-Sep-25 08:13N 32°59' W 011°43'6416.1
2017-Sep-25 04:13N 31°58' W 012°07'416.9
2017-Sep-25 03:57N 31°54' W 012°08'817.3
2017-Sep-25 03:30N 31°46' W 012°11'917.4
2017-Sep-25 03:00N 31°38' W 012°14'917.1
2017-Sep-25 02:30N 31°30' W 012°17'917.2
2017-Sep-25 02:00N 31°22' W 012°21'816.8
2017-Sep-25 01:30N 31°14' W 012°24'917.2
2017-Sep-25 01:00N 31°06' W 012°27'816.8
2017-Sep-25 00:30N 30°58' W 012°30'816.4
2017-Sep-25 00:00N 30°50' W 012°33'816.8
2017-Sep-24 23:30N 30°42' W 012°36'816.6
2017-Sep-24 23:01N 30°34' W 012°39'816.3
2017-Sep-24 22:31N 30°26' W 012°42'816.0
2017-Sep-24 22:01N 30°19' W 012°45'815.8
2017-Sep-24 21:31N 30°11' W 012°48'816.1
2017-Sep-24 21:01N 30°04' W 012°51'816.1
2017-Sep-24 20:30N 29°56' W 012°54'816.3
2017-Sep-24 20:01N 29°48' W 012°57'816.3
2017-Sep-24 19:30N 29°41' W 012°60'816.4
2017-Sep-24 19:00N 29°33' W 013°03'816.4
2017-Sep-24 18:31N 29°25' W 013°05'916.5
2017-Sep-24 17:57N 29°16' W 013°09'716.9
2017-Sep-24 17:31N 29°09' W 013°11'816.0
2017-Sep-24 17:00N 29°03' W 013°18'816.1
2017-Sep-24 16:30N 28°59' W 013°26'611.3
2017-Sep-24 16:01N 28°58' W 013°32'0 0.8
2017-Sep-24 15:30N 28°58' W 013°32'0 0.0
2017-Sep-24 15:00N 28°58' W 013°32'0 0.0
2017-Sep-24 14:30N 28°58' W 013°32'0 0.0
2017-Sep-24 14:00N 28°58' W 013°32'0 0.0
2017-Sep-24 13:30N 28°58' W 013°32'0 0.0
2017-Sep-24 13:00N 28°58' W 013°32'0 0.0
2017-Sep-24 12:30N 28°58' W 013°32'0 0.0
2017-Sep-24 12:00N 28°58' W 013°32'0 0.0
2017-Sep-24 11:24N 28°58' W 013°32'0 0.0
2017-Sep-24 10:54N 28°58' W 013°32'0 0.0
2017-Sep-24 10:30N 28°58' W 013°32'0 0.0
2017-Sep-24 09:12N 28°58' W 013°32'0 0.0
2017-Sep-24 08:57N 28°58' W 013°32'0 0.0
2017-Sep-24 08:27N 28°58' W 013°32'0 0.0
2017-Sep-24 08:00N 28°58' W 013°32'0 0.0
2017-Sep-24 07:30N 28°58' W 013°32'0 0.0
2017-Sep-24 07:00N 28°58' W 013°32'0 0.0
2017-Sep-24 06:30N 28°58' W 013°32'0 0.0
2017-Sep-24 06:00N 28°58' W 013°32'0 0.0
2017-Sep-24 05:30N 28°58' W 013°32'0 0.0
2017-Sep-24 04:45N 28°58' W 013°32'0 0.0
2017-Sep-24 04:30N 28°58' W 013°32'0 0.0
2017-Sep-24 04:00N 28°58' W 013°32'0 0.0
2017-Sep-24 03:30N 28°58' W 013°32'0 0.3
2017-Sep-24 03:00N 28°58' W 013°32'4 7.1
2017-Sep-24 02:30N 28°55' W 013°34'1218.5
2017-Sep-24 01:52N 28°48' W 013°45'918.1
2017-Sep-24 01:24N 28°48' W 013°55'718.3
2017-Sep-24 01:00N 28°48' W 014°03'918.1
2017-Sep-24 00:30N 28°44' W 014°12'1018.6
2017-Sep-24 00:00N 28°38' W 014°21'1116.8
2017-Sep-23 23:22N 28°32' W 014°31'3 9.5
2017-Sep-23 23:00N 28°30' W 014°34'10815.2
2017-Sep-23 23:00N 28°24' W 014°42'5 9.9 040 / 171016.610.8 22.019.722.6
2017-Sep-23 22:30N 28°27' W 014°38'5 9.8
2017-Sep-23 22:00N 28°25' W 014°43'5 9.5
2017-Sep-23 21:30N 28°22' W 014°47'5 9.5
2017-Sep-23 21:00N 28°18' W 014°50'5 9.9
2017-Sep-23 20:30N 28°13' W 014°52'5 9.7
2017-Sep-23 20:00N 28°09' W 014°54'180 4.0
2017-Sep-21 23:00N 30°48' W 016°30'7915.9 060 / 241020.510.8 22.518.623.0
2017-Sep-21 18:00N 32°06' W 016°48'129 6.8 020 / 221020.310.8 27.015.623.4
2017-Sep-20 23:00N 34°00' W 015°36'7815.6 010 / 181021.510.8 20.019.222.3
2017-Sep-20 18:00N 35°12' W 015°00'7415.1 340 / 171020.227.0 20.519.622.2
2017-Sep-20 13:06N 36°21' W 014°26'415.2
2017-Sep-20 12:49N 36°25' W 014°24'1814.8
2017-Sep-20 11:38N 36°41' W 014°15'1115.0
2017-Sep-20 10:53N 36°51' W 014°10'615.1
2017-Sep-20 10:30N 36°56' W 014°07'714.8
2017-Sep-20 10:00N 37°03' W 014°04'815.2
2017-Sep-20 09:27N 37°11' W 013°59'715.1
2017-Sep-20 09:00N 37°17' W 013°56'1114.8
2017-Sep-20 08:18N 37°27' W 013°51'415.5
2017-Sep-20 08:00N 37°31' W 013°49'815.6
2017-Sep-20 07:29N 37°38' W 013°45'715.5
2017-Sep-20 07:00N 37°45' W 013°41'5317.0
2017-Sep-20 07:00N 37°42' W 013°36'1121.0 060 / 61022.227.0 20.211.621.8
2017-Sep-20 06:29N 37°53' W 013°37'715.3
2017-Sep-20 06:00N 37°60' W 013°33'715.2
2017-Sep-20 05:30N 38°06' W 013°30'815.3
2017-Sep-20 05:00N 38°13' W 013°26'915.1
2017-Sep-20 04:25N 38°22' W 013°21'715.9
2017-Sep-20 04:00N 38°28' W 013°18'815.5
2017-Sep-20 03:30N 38°35' W 013°14'815.7
2017-Sep-20 03:00N 38°42' W 013°10'816.0
2017-Sep-20 02:30N 38°49' W 013°06'916.0
2017-Sep-20 01:58N 38°57' W 013°02'1115.9
2017-Sep-20 01:17N 39°07' W 012°57'415.6
2017-Sep-20 00:59N 39°12' W 012°54'11216.1
2017-Sep-19 18:00N 40°54' W 011°54'17015.4 330 / 91024.227.0 20.011.320.5
2017-Sep-19 07:00N 43°30' W 010°24'13815.3 180 / 41024.527.0 15.614.719.3
2017-Sep-18 22:00N 45°24' W 008°36'21616.5 1025.410.8 16.512.018.4
2017-Sep-18 08:54N 48°21' W 005°35'718.2
2017-Sep-18 08:30N 48°27' W 005°29'1019.2
2017-Sep-18 08:00N 48°35' W 005°19'918.5
2017-Sep-18 07:30N 48°41' W 005°10'917.4
2017-Sep-18 07:00N 48°47' W 005°00'4283.3
2017-Sep-18 07:00N 48°48' W 004°54'510.9 330 / 151019.827.0 11.1 9.714.3
2017-Sep-18 06:30N 48°53' W 004°50'816.5
2017-Sep-18 06:00N 48°58' W 004°41'5314.5
2017-Sep-18 02:22N 49°33' W 003°40'514.5
2017-Sep-18 02:00N 49°36' W 003°34'715.0
2017-Sep-18 01:30N 49°41' W 003°25'815.5
2017-Sep-18 01:01N 49°46' W 003°16'816.2
2017-Sep-18 00:30N 49°52' W 003°07'816.7
2017-Sep-18 00:00N 49°57' W 002°57'917.3
2017-Sep-17 23:30N 49°60' W 002°44'1732.4
2017-Sep-17 23:00N 50°00' W 002°18'87623.7 350 / 161017.4 5.4 14.5 8.616.9
2017-Sep-17 22:59N 50°02' W 002°31'1717.1
2017-Sep-17 21:58N 50°10' W 002°06'816.2
2017-Sep-17 21:30N 50°13' W 001°56'815.6
2017-Sep-17 21:00N 50°17' W 001°45'714.9
2017-Sep-17 20:31N 50°21' W 001°35'714.2
2017-Sep-17 19:59N 50°25' W 001°25'613.5
2017-Sep-17 19:30N 50°28' W 001°16'612.7
2017-Sep-17 19:01N 50°31' W 001°07'612.3
2017-Sep-17 18:31N 50°35' W 000°60'612.7
2017-Sep-17 18:01N 50°41' W 000°58'713.2
2017-Sep-17 17:31N 50°45' W 001°06'816.6
2017-Sep-17 17:01N 50°47' W 001°19'4 7.7
2017-Sep-17 16:30N 50°51' W 001°20'3 6.4
2017-Sep-17 15:59N 50°53' W 001°24'0 0.0
2017-Sep-17 15:29N 50°53' W 001°24'0 0.0
2017-Sep-17 14:59N 50°53' W 001°24'0 0.0
2017-Sep-17 14:29N 50°53' W 001°24'0 0.0
2017-Sep-17 13:56N 50°53' W 001°24'0 0.0
2017-Sep-17 13:29N 50°53' W 001°24'0 0.0
2017-Sep-17 12:59N 50°53' W 001°24'0 0.0
2017-Sep-17 12:29N 50°53' W 001°24'0 0.0
2017-Sep-17 11:59N 50°53' W 001°24'0 0.0
2017-Sep-17 11:29N 50°53' W 001°24'0 0.0
2017-Sep-17 10:59N 50°53' W 001°24'0 0.0
2017-Sep-17 10:29N 50°53' W 001°24'0 0.0
2017-Sep-17 09:59N 50°53' W 001°24'0 0.0
2017-Sep-17 09:29N 50°53' W 001°24'0 0.0
2017-Sep-17 08:59N 50°53' W 001°24'0 0.0
2017-Sep-17 08:29N 50°53' W 001°24'0 0.0
2017-Sep-17 07:59N 50°53' W 001°24'0 0.0
2017-Sep-17 07:23N 50°53' W 001°24'0 0.0
2017-Sep-17 06:56N 50°53' W 001°24'0 0.0
2017-Sep-17 06:30N 50°53' W 001°24'0 0.0
2017-Sep-17 05:59N 50°53' W 001°24'0 0.0
2017-Sep-17 05:26N 50°53' W 001°24'0 0.0
2017-Sep-17 04:59N 50°53' W 001°24'0 0.6
2017-Sep-17 04:30N 50°53' W 001°24'5 9.2
2017-Sep-17 04:01N 50°50' W 001°19'4 8.0
2017-Sep-17 03:30N 50°46' W 001°16'816.7
2017-Sep-17 03:00N 50°44' W 001°03'611.0
2017-Sep-17 02:30N 50°39' W 000°59'611.2
2017-Sep-17 02:01N 50°34' W 001°01'815.2
2017-Sep-17 01:31N 50°30' W 001°11'713.8
2017-Sep-17 01:00N 50°27' W 001°21'712.0
2017-Sep-17 00:26N 50°25' W 001°31'511.5
2017-Sep-16 23:58N 50°22' W 001°39'  

Dump ship's entire track history